createdAt,value
2023-04-01T00:00:28.366Z,7.40
2023-04-01T00:01:28.360Z,7.44
2023-04-01T00:02:28.403Z,7.47
2023-04-01T00:03:28.520Z,7.47
2023-04-01T00:04:28.313Z,7.49
2023-04-01T00:05:28.268Z,7.49
2023-04-01T00:06:28.333Z,7.52
2023-04-01T00:07:30.777Z,7.52
2023-04-01T00:08:28.243Z,7.49
2023-04-01T00:09:29.985Z,7.47
2023-04-01T00:10:28.232Z,7.52
2023-04-01T00:11:28.213Z,7.52
2023-04-01T00:12:28.202Z,7.52
2023-04-01T00:13:28.314Z,7.58
2023-04-01T00:14:28.180Z,7.55
2023-04-01T00:15:28.252Z,7.55
2023-04-01T00:16:28.213Z,7.55
2023-04-01T00:17:28.196Z,7.53
2023-04-01T00:18:28.180Z,7.50
2023-04-01T00:19:28.121Z,7.45
2023-04-01T00:20:28.130Z,7.45
2023-04-01T00:21:28.114Z,7.42
2023-04-01T00:22:28.162Z,7.42
2023-04-01T00:23:28.077Z,7.41
2023-04-01T00:24:28.063Z,7.41
2023-04-01T00:25:28.060Z,7.42
2023-04-01T00:26:28.060Z,7.41
2023-04-01T00:27:28.059Z,7.44
2023-04-01T00:28:28.058Z,7.42
2023-04-01T00:29:28.019Z,7.42
2023-04-01T00:30:28.039Z,7.42
2023-04-01T00:31:28.048Z,7.44
2023-04-01T00:32:28.020Z,7.49
2023-04-01T00:33:27.984Z,7.49
2023-04-01T00:34:27.964Z,7.49
2023-04-01T00:35:27.965Z,7.47
2023-04-01T00:36:28.119Z,7.49
2023-04-01T00:37:27.953Z,7.49
2023-04-01T00:38:27.918Z,7.50
2023-04-01T00:39:27.924Z,7.49
2023-04-01T00:40:27.896Z,7.50
2023-04-01T00:41:27.912Z,7.50
2023-04-01T00:42:27.918Z,7.49
2023-04-01T00:43:27.876Z,7.47
2023-04-01T00:44:27.949Z,7.47
2023-04-01T00:45:27.855Z,7.45
2023-04-01T00:46:27.901Z,7.44
2023-04-01T00:47:28.540Z,7.41
2023-04-01T00:48:27.816Z,7.42
2023-04-01T00:49:27.809Z,7.44
2023-04-01T00:50:27.790Z,7.50
2023-04-01T00:51:27.811Z,7.50
2023-04-01T00:52:27.783Z,7.47
2023-04-01T00:53:27.775Z,7.50
2023-04-01T00:54:27.806Z,7.47
2023-04-01T00:55:27.731Z,7.45
2023-04-01T00:56:27.818Z,7.47
2023-04-01T00:57:27.882Z,7.50
2023-04-01T00:58:27.748Z,7.55
2023-04-01T00:59:27.700Z,7.50
2023-04-01T01:00:27.692Z,7.49
2023-04-01T01:01:27.749Z,7.47
2023-04-01T01:02:27.724Z,7.45
2023-04-01T01:03:27.814Z,7.45
2023-04-01T01:04:27.644Z,7.44
2023-04-01T01:05:28.011Z,7.42
2023-04-01T01:06:27.650Z,7.41
2023-04-01T01:07:27.613Z,7.42
2023-04-01T01:08:27.617Z,7.41
2023-04-01T01:09:27.582Z,7.37
2023-04-01T01:10:27.606Z,7.40
2023-04-01T01:11:28.003Z,7.41
2023-04-01T01:12:27.570Z,7.41
2023-04-01T01:13:27.549Z,7.41
2023-04-01T01:14:27.633Z,7.41
2023-04-01T01:15:27.537Z,7.38
2023-04-01T01:16:27.575Z,7.40
2023-04-01T01:17:27.540Z,7.37
2023-04-01T01:18:27.500Z,7.40
2023-04-01T01:19:27.481Z,7.37
2023-04-01T01:20:27.467Z,7.37
2023-04-01T01:21:27.475Z,7.38
2023-04-01T01:22:27.484Z,7.37
2023-04-01T01:23:27.471Z,7.37
2023-04-01T01:24:27.555Z,7.37
2023-04-01T01:25:27.439Z,7.41
2023-04-01T01:26:27.578Z,7.41
2023-04-01T01:27:27.444Z,7.42
2023-04-01T01:28:27.390Z,7.42
2023-04-01T01:29:27.408Z,7.42
2023-04-01T01:30:27.377Z,7.42
2023-04-01T01:31:27.457Z,7.40
2023-04-01T01:32:27.373Z,7.41
2023-04-01T01:33:27.332Z,7.42
2023-04-01T01:34:27.373Z,7.47
2023-04-01T01:35:27.306Z,7.45
2023-04-01T01:36:27.353Z,7.49
2023-04-01T01:37:27.302Z,7.47
2023-04-01T01:38:27.293Z,7.47
2023-04-01T01:39:27.273Z,7.49
2023-04-01T01:40:27.251Z,7.49
2023-04-01T01:41:27.265Z,7.45
2023-04-01T01:42:27.233Z,7.40
2023-04-01T01:43:27.251Z,7.38
2023-04-01T01:44:27.240Z,7.37
2023-04-01T01:45:27.233Z,7.37
2023-04-01T01:46:27.222Z,7.34
2023-04-01T01:47:27.211Z,7.31
2023-04-01T01:48:27.168Z,7.31
2023-04-01T01:49:27.160Z,7.31
2023-04-01T01:50:27.142Z,7.27
2023-04-01T01:51:27.159Z,7.29
2023-04-01T01:52:27.121Z,7.29
2023-04-01T01:53:27.122Z,7.27
2023-04-01T01:54:27.105Z,7.23
2023-04-01T01:55:27.098Z,7.24
2023-04-01T01:56:27.102Z,7.23
2023-04-01T01:57:27.132Z,7.26
2023-04-01T01:58:27.101Z,7.29
2023-04-01T01:59:27.063Z,7.26
2023-04-01T02:00:27.024Z,7.24
2023-04-01T02:01:27.081Z,7.24
2023-04-01T02:02:27.073Z,7.24
2023-04-01T02:03:27.007Z,7.24
2023-04-01T02:04:27.011Z,7.29
2023-04-01T02:05:27.014Z,7.29
2023-04-01T02:06:26.988Z,7.32
2023-04-01T02:07:27.014Z,7.29
2023-04-01T02:08:26.947Z,7.23
2023-04-01T02:09:26.976Z,7.23
2023-04-01T02:10:26.925Z,7.27
2023-04-01T02:11:26.926Z,7.24
2023-04-01T02:12:26.906Z,7.22
2023-04-01T02:13:26.912Z,7.20
2023-04-01T02:14:26.918Z,7.23
2023-04-01T02:15:26.883Z,7.22
2023-04-01T02:16:27.013Z,7.20
2023-04-01T02:17:26.937Z,7.20
2023-04-01T02:18:26.838Z,7.19
2023-04-01T02:19:26.868Z,7.22
2023-04-01T02:20:26.843Z,7.22
2023-04-01T02:21:26.839Z,7.20
2023-04-01T02:22:26.797Z,7.19
2023-04-01T02:23:26.877Z,7.17
2023-04-01T02:24:26.791Z,7.15
2023-04-01T02:25:26.821Z,7.16
2023-04-01T02:26:26.762Z,7.16
2023-04-01T02:27:26.746Z,7.16
2023-04-01T02:28:26.753Z,7.15
2023-04-01T02:29:26.748Z,7.13
2023-04-01T02:30:26.715Z,7.08
2023-04-01T02:31:26.811Z,7.09
2023-04-01T02:32:26.720Z,7.07
2023-04-01T02:33:26.678Z,7.13
2023-04-01T02:34:26.739Z,7.13
2023-04-01T02:35:26.689Z,7.12
2023-04-01T02:36:26.738Z,7.08
2023-04-01T02:37:26.652Z,7.13
2023-04-01T02:38:26.619Z,7.17
2023-04-01T02:39:26.631Z,7.16
2023-04-01T02:40:26.678Z,7.16
2023-04-01T02:41:26.618Z,7.09
2023-04-01T02:42:26.614Z,7.09
2023-04-01T02:43:26.584Z,7.15
2023-04-01T02:44:26.606Z,7.13
2023-04-01T02:45:26.563Z,7.15
2023-04-01T02:46:26.573Z,7.12
2023-04-01T02:47:26.581Z,7.08
2023-04-01T02:48:26.544Z,7.09
2023-04-01T02:49:26.513Z,7.09
2023-04-01T02:50:26.519Z,7.09
2023-04-01T02:51:26.538Z,7.12
2023-04-01T02:52:26.494Z,7.09
2023-04-01T02:53:26.463Z,7.13
2023-04-01T02:54:26.506Z,7.12
2023-04-01T02:55:26.483Z,7.12
2023-04-01T02:56:26.474Z,7.08
2023-04-01T02:57:26.524Z,7.07
2023-04-01T02:58:26.441Z,7.05
2023-04-01T02:59:26.424Z,7.04
2023-04-01T03:00:26.399Z,7.02
2023-04-01T03:01:26.505Z,6.98
2023-04-01T03:02:26.462Z,6.99
2023-04-01T03:03:26.391Z,7.01
2023-04-01T03:04:26.344Z,6.99
2023-04-01T03:05:26.362Z,7.01
2023-04-01T03:06:26.339Z,6.97
2023-04-01T03:07:26.313Z,6.95
2023-04-01T03:08:26.297Z,6.94
2023-04-01T03:09:26.305Z,6.90
2023-04-01T03:10:26.303Z,6.91
2023-04-01T03:11:26.317Z,6.94
2023-04-01T03:12:26.281Z,6.95
2023-04-01T03:13:26.257Z,6.97
2023-04-01T03:14:26.244Z,6.99
2023-04-01T03:15:26.238Z,7.02
2023-04-01T03:16:26.320Z,7.01
2023-04-01T03:17:26.285Z,7.05
2023-04-01T03:18:26.226Z,7.04
2023-04-01T03:19:26.205Z,6.99
2023-04-01T03:20:26.175Z,6.99
2023-04-01T03:21:26.189Z,6.99
2023-04-01T03:22:26.147Z,6.99
2023-04-01T03:23:26.199Z,7.01
2023-04-01T03:24:26.140Z,7.01
2023-04-01T03:25:26.135Z,7.02
2023-04-01T03:26:26.123Z,7.04
2023-04-01T03:27:26.107Z,7.05
2023-04-01T03:28:26.080Z,7.09
2023-04-01T03:29:26.081Z,7.07
2023-04-01T03:30:26.147Z,7.07
2023-04-01T03:31:26.175Z,7.08
2023-04-01T03:32:26.083Z,7.07
2023-04-01T03:33:26.043Z,7.04
2023-04-01T03:34:26.093Z,7.05
2023-04-01T03:35:26.014Z,7.08
2023-04-01T03:36:26.076Z,7.05
2023-04-01T03:37:25.982Z,7.05
2023-04-01T03:38:26.070Z,7.01
2023-04-01T03:39:26.007Z,7.02
2023-04-01T03:40:25.995Z,6.99
2023-04-01T03:41:25.962Z,6.99
2023-04-01T03:42:25.940Z,6.99
2023-04-01T03:43:25.948Z,6.97
2023-04-01T03:44:25.914Z,6.94
2023-04-01T03:45:25.922Z,6.91
2023-04-01T03:46:25.963Z,6.94
2023-04-01T03:47:25.909Z,6.97
2023-04-01T03:48:25.882Z,6.98
2023-04-01T03:49:25.884Z,7.02
2023-04-01T03:50:25.851Z,6.99
2023-04-01T03:51:25.876Z,7.01
2023-04-01T03:52:25.841Z,6.98
2023-04-01T03:53:25.858Z,6.98
2023-04-01T03:54:25.809Z,7.01
2023-04-01T03:55:25.826Z,7.02
2023-04-01T03:56:25.802Z,7.04
2023-04-01T03:57:25.869Z,7.01
2023-04-01T03:58:25.765Z,6.99
2023-04-01T03:59:25.769Z,6.97
2023-04-01T04:00:25.737Z,6.94
2023-04-01T04:01:25.799Z,6.90
2023-04-01T04:02:25.809Z,6.89
2023-04-01T04:03:25.861Z,6.83
2023-04-01T04:04:25.717Z,6.81
2023-04-01T04:05:25.693Z,6.73
2023-04-01T04:06:25.700Z,6.69
2023-04-01T04:07:25.665Z,6.66
2023-04-01T04:08:25.675Z,6.66
2023-04-01T04:09:25.646Z,6.65
2023-04-01T04:10:25.631Z,6.62
2023-04-01T04:11:25.767Z,6.58
2023-04-01T04:12:25.628Z,6.56
2023-04-01T04:13:25.641Z,6.56
2023-04-01T04:14:25.598Z,6.54
2023-04-01T04:15:25.607Z,6.56
2023-04-01T04:16:25.696Z,6.56
2023-04-01T04:17:25.618Z,6.54
2023-04-01T04:18:25.572Z,6.51
2023-04-01T04:19:25.573Z,6.51
2023-04-01T04:20:25.524Z,6.50
2023-04-01T04:21:25.546Z,6.53
2023-04-01T04:22:25.506Z,6.51
2023-04-01T04:23:25.527Z,6.51
2023-04-01T04:24:25.495Z,6.51
2023-04-01T04:25:25.504Z,6.51
2023-04-01T04:26:25.481Z,6.50
2023-04-01T04:27:25.502Z,6.46
2023-04-01T04:28:25.469Z,6.44
2023-04-01T04:29:25.464Z,6.43
2023-04-01T04:30:25.382Z,6.44
2023-04-01T04:31:25.477Z,6.40
2023-04-01T04:32:25.414Z,6.40
2023-04-01T04:33:26.119Z,6.35
2023-04-01T04:34:25.388Z,6.35
2023-04-01T04:35:25.372Z,6.33
2023-04-01T04:36:25.432Z,6.35
2023-04-01T04:37:25.317Z,6.35
2023-04-01T04:38:25.352Z,6.33
2023-04-01T04:39:25.268Z,6.30
2023-04-01T04:40:25.250Z,6.35
2023-04-01T04:41:25.258Z,6.35
2023-04-01T04:42:25.245Z,6.36
2023-04-01T04:43:25.245Z,6.40
2023-04-01T04:44:25.214Z,6.40
2023-04-01T04:45:25.203Z,6.41
2023-04-01T04:46:25.261Z,6.44
2023-04-01T04:47:25.209Z,6.47
2023-04-01T04:48:25.162Z,6.46
2023-04-01T04:49:25.159Z,6.44
2023-04-01T04:50:25.160Z,6.47
2023-04-01T04:51:25.175Z,6.44
2023-04-01T04:52:25.126Z,6.43
2023-04-01T04:53:25.122Z,6.46
2023-04-01T04:54:25.112Z,6.53
2023-04-01T04:55:25.095Z,6.58
2023-04-01T04:56:25.097Z,6.58
2023-04-01T04:57:25.143Z,6.61
2023-04-01T04:58:25.120Z,6.63
2023-04-01T04:59:25.061Z,6.66
2023-04-01T05:00:25.055Z,6.66
2023-04-01T05:01:25.200Z,6.66
2023-04-01T05:02:25.133Z,6.66
2023-04-01T05:03:25.215Z,6.68
2023-04-01T05:04:25.011Z,6.71
2023-04-01T05:05:24.999Z,6.73
2023-04-01T05:06:25.697Z,6.77
2023-04-01T05:07:25.007Z,6.80
2023-04-01T05:08:25.022Z,6.86
2023-04-01T05:09:24.948Z,6.89
2023-04-01T05:10:24.948Z,6.90
2023-04-01T05:11:24.950Z,6.94
2023-04-01T05:12:24.917Z,6.90
2023-04-01T05:13:24.905Z,6.94
2023-04-01T05:14:24.909Z,6.94
2023-04-01T05:15:24.899Z,6.99
2023-04-01T05:16:25.001Z,7.02
2023-04-01T05:17:24.887Z,7.09
2023-04-01T05:18:24.857Z,7.09
2023-04-01T05:19:24.882Z,7.07
2023-04-01T05:20:24.873Z,7.09
2023-04-01T05:21:24.850Z,7.12
2023-04-01T05:22:24.811Z,7.15
2023-04-01T05:23:24.799Z,7.17
2023-04-01T05:24:24.794Z,7.17
2023-04-01T05:25:24.794Z,7.20
2023-04-01T05:26:24.775Z,7.22
2023-04-01T05:27:24.753Z,7.31
2023-04-01T05:28:24.761Z,7.34
2023-04-01T05:29:24.785Z,7.40
2023-04-01T05:30:24.741Z,7.40
2023-04-01T05:31:24.769Z,7.38
2023-04-01T05:32:24.758Z,7.37
2023-04-01T05:33:24.690Z,7.32
2023-04-01T05:34:24.678Z,7.34
2023-04-01T05:35:24.747Z,7.32
2023-04-01T05:36:24.702Z,7.37
2023-04-01T05:37:24.668Z,7.38
2023-04-01T05:38:24.663Z,7.38
2023-04-01T05:39:24.639Z,7.35
2023-04-01T05:40:24.625Z,7.34
2023-04-01T05:41:24.671Z,7.34
2023-04-01T05:42:24.596Z,7.37
2023-04-01T05:43:24.581Z,7.38
2023-04-01T05:44:24.597Z,7.45
2023-04-01T05:45:24.588Z,7.45
2023-04-01T05:46:24.585Z,7.45
2023-04-01T05:47:24.665Z,7.53
2023-04-01T05:48:24.567Z,7.59
2023-04-01T05:49:26.215Z,7.67
2023-04-01T05:50:24.509Z,7.69
2023-04-01T05:51:24.536Z,7.74
2023-04-01T05:52:24.496Z,7.75
2023-04-01T05:53:24.478Z,7.93
2023-04-01T05:54:24.531Z,7.96
2023-04-01T05:55:24.465Z,7.97
2023-04-01T05:56:24.465Z,7.99
2023-04-01T05:57:24.471Z,8.00
2023-04-01T05:58:24.458Z,8.10
2023-04-01T05:59:24.427Z,8.10
2023-04-01T06:00:24.421Z,8.14
2023-04-01T06:01:24.419Z,8.20
2023-04-01T06:02:24.439Z,8.15
2023-04-01T06:03:24.528Z,8.18
2023-04-01T06:04:24.421Z,8.12
2023-04-01T06:05:24.355Z,8.18
2023-04-01T06:06:24.384Z,8.14
2023-04-01T06:07:24.523Z,8.14
2023-04-01T06:08:24.321Z,8.04
2023-04-01T06:09:24.354Z,8.10
2023-04-01T06:10:24.321Z,8.07
2023-04-01T06:11:24.304Z,8.03
2023-04-01T06:12:24.310Z,8.03
2023-04-01T06:13:24.276Z,8.07
2023-04-01T06:14:24.278Z,8.15
2023-04-01T06:15:24.255Z,8.15
2023-04-01T06:16:24.339Z,8.25
2023-04-01T06:17:24.249Z,8.21
2023-04-01T06:18:24.211Z,8.28
2023-04-01T06:19:24.205Z,8.25
2023-04-01T06:20:24.183Z,8.20
2023-04-01T06:21:24.201Z,8.22
2023-04-01T06:22:24.248Z,8.22
2023-04-01T06:23:24.163Z,8.28
2023-04-01T06:24:24.353Z,8.28
2023-04-01T06:25:24.372Z,8.28
2023-04-01T06:26:24.187Z,8.25
2023-04-01T06:27:24.136Z,8.10
2023-04-01T06:28:24.129Z,8.08
2023-04-01T06:29:24.097Z,8.10
2023-04-01T06:30:24.148Z,8.12
2023-04-01T06:31:24.187Z,8.15
2023-04-01T06:32:24.168Z,8.21
2023-04-01T06:33:24.051Z,8.17
2023-04-01T06:34:24.175Z,8.07
2023-04-01T06:35:24.104Z,8.08
2023-04-01T06:36:24.120Z,8.12
2023-04-01T06:37:24.035Z,8.18
2023-04-01T06:38:24.002Z,8.07
2023-04-01T06:39:24.080Z,8.03
2023-04-01T06:40:23.987Z,8.00
2023-04-01T06:41:23.981Z,7.97
2023-04-01T06:42:23.961Z,7.96
2023-04-01T06:43:23.939Z,7.96
2023-04-01T06:44:23.976Z,7.90
2023-04-01T06:45:23.951Z,7.87
2023-04-01T06:46:24.059Z,7.84
2023-04-01T06:47:23.907Z,7.85
2023-04-01T06:48:23.892Z,7.93
2023-04-01T06:49:23.967Z,7.97
2023-04-01T06:50:23.892Z,7.99
2023-04-01T06:51:23.884Z,7.99
2023-04-01T06:52:23.850Z,8.04
2023-04-01T06:53:23.842Z,8.08
2023-04-01T06:54:23.857Z,8.12
2023-04-01T06:55:23.821Z,8.17
2023-04-01T06:56:23.849Z,8.18
2023-04-01T06:57:23.822Z,8.22
2023-04-01T06:58:23.817Z,8.18
2023-04-01T06:59:23.794Z,8.11
2023-04-01T07:00:23.845Z,8.07
2023-04-01T07:01:23.922Z,8.03
2023-04-01T07:02:23.833Z,8.03
2023-04-01T07:03:23.757Z,8.07
2023-04-01T07:04:23.795Z,8.02
2023-04-01T07:05:23.708Z,7.99
2023-04-01T07:06:23.723Z,8.00
2023-04-01T07:07:23.688Z,8.02
2023-04-01T07:08:23.670Z,8.04
2023-04-01T07:09:23.919Z,8.00
2023-04-01T07:10:23.799Z,8.04
2023-04-01T07:11:23.681Z,8.03
2023-04-01T07:12:23.648Z,7.96
2023-04-01T07:13:23.626Z,8.07
2023-04-01T07:14:23.683Z,8.12
2023-04-01T07:15:23.677Z,8.10
2023-04-01T07:16:24.177Z,8.15
2023-04-01T07:17:23.614Z,8.17
2023-04-01T07:18:23.595Z,8.26
2023-04-01T07:19:23.558Z,8.33
2023-04-01T07:20:23.546Z,8.30
2023-04-01T07:21:23.548Z,8.26
2023-04-01T07:22:23.554Z,8.25
2023-04-01T07:23:23.528Z,8.29
2023-04-01T07:24:23.507Z,8.33
2023-04-01T07:25:23.481Z,8.30
2023-04-01T07:26:23.511Z,8.25
2023-04-01T07:27:23.457Z,8.15
2023-04-01T07:28:23.460Z,8.11
2023-04-01T07:29:23.480Z,8.15
2023-04-01T07:30:23.458Z,8.10
2023-04-01T07:31:23.511Z,8.12
2023-04-01T07:32:23.504Z,8.02
2023-04-01T07:33:23.422Z,8.03
2023-04-01T07:34:23.435Z,8.10
2023-04-01T07:35:23.395Z,8.12
2023-04-01T07:36:23.430Z,8.15
2023-04-01T07:37:23.370Z,8.21
2023-04-01T07:38:23.392Z,8.20
2023-04-01T07:39:23.371Z,8.26
2023-04-01T07:40:23.372Z,8.32
2023-04-01T07:41:23.321Z,8.33
2023-04-01T07:42:23.307Z,8.33
2023-04-01T07:43:23.288Z,8.33
2023-04-01T07:44:23.301Z,8.44
2023-04-01T07:45:23.274Z,8.45
2023-04-01T07:46:23.341Z,8.51
2023-04-01T07:47:23.261Z,8.51
2023-04-01T07:48:23.304Z,8.47
2023-04-01T07:49:23.222Z,8.57
2023-04-01T07:50:23.221Z,8.72
2023-04-01T07:51:23.217Z,8.81
2023-04-01T07:52:23.223Z,8.81
2023-04-01T07:53:23.184Z,8.81
2023-04-01T07:54:23.177Z,8.81
2023-04-01T07:55:23.185Z,8.86
2023-04-01T07:56:23.224Z,8.87
2023-04-01T07:57:23.199Z,8.87
2023-04-01T07:58:23.146Z,8.99
2023-04-01T07:59:23.139Z,8.97
2023-04-01T08:00:23.191Z,8.99
2023-04-01T08:01:23.107Z,8.91
2023-04-01T08:02:23.255Z,8.83
2023-04-01T08:03:23.136Z,8.81
2023-04-01T08:04:23.145Z,8.83
2023-04-01T08:05:23.071Z,8.78
2023-04-01T08:06:23.058Z,8.73
2023-04-01T08:07:23.063Z,8.79
2023-04-01T08:08:23.035Z,8.86
2023-04-01T08:09:23.009Z,8.81
2023-04-01T08:10:23.020Z,8.78
2023-04-01T08:11:23.094Z,8.75
2023-04-01T08:12:23.007Z,8.71
2023-04-01T08:13:22.976Z,8.75
2023-04-01T08:14:22.962Z,8.79
2023-04-01T08:15:23.001Z,8.83
2023-04-01T08:16:23.020Z,8.86
2023-04-01T08:17:22.954Z,8.84
2023-04-01T08:18:23.356Z,8.84
2023-04-01T08:19:22.922Z,8.84
2023-04-01T08:20:22.934Z,8.90
2023-04-01T08:21:22.895Z,8.97
2023-04-01T08:22:22.887Z,9.02
2023-04-01T08:23:22.869Z,8.96
2023-04-01T08:24:22.966Z,8.96
2023-04-01T08:25:22.872Z,8.90
2023-04-01T08:26:22.865Z,8.69
2023-04-01T08:27:22.818Z,8.71
2023-04-01T08:28:22.809Z,8.55
2023-04-01T08:29:22.836Z,8.51
2023-04-01T08:30:22.839Z,8.50
2023-04-01T08:31:22.837Z,8.44
2023-04-01T08:32:22.830Z,8.44
2023-04-01T08:33:22.770Z,8.35
2023-04-01T08:34:22.808Z,8.36
2023-04-01T08:35:22.742Z,8.37
2023-04-01T08:36:22.809Z,8.30
2023-04-01T08:37:22.716Z,8.30
2023-04-01T08:38:22.720Z,8.28
2023-04-01T08:39:22.712Z,8.21
2023-04-01T08:40:22.686Z,8.22
2023-04-01T08:41:22.719Z,8.14
2023-04-01T08:42:22.664Z,8.04
2023-04-01T08:43:22.651Z,8.07
2023-04-01T08:44:22.667Z,8.04
2023-04-01T08:45:22.703Z,8.02
2023-04-01T08:46:22.687Z,7.94
2023-04-01T08:47:22.630Z,7.93
2023-04-01T08:48:22.608Z,7.93
2023-04-01T08:49:22.608Z,7.94
2023-04-01T08:50:22.608Z,7.94
2023-04-01T08:51:22.577Z,8.02
2023-04-01T08:52:22.586Z,8.10
2023-04-01T08:53:22.560Z,8.10
2023-04-01T08:54:22.539Z,8.14
2023-04-01T08:55:22.542Z,8.21
2023-04-01T08:56:22.563Z,8.29
2023-04-01T08:57:22.660Z,8.25
2023-04-01T08:58:22.520Z,8.39
2023-04-01T08:59:22.477Z,8.48
2023-04-01T09:00:22.484Z,8.60
2023-04-01T09:01:22.491Z,8.68
2023-04-01T09:02:22.492Z,8.60
2023-04-01T09:03:22.511Z,8.75
2023-04-01T09:04:22.495Z,8.72
2023-04-01T09:05:22.428Z,8.84
2023-04-01T09:06:22.454Z,8.90
2023-04-01T09:07:22.475Z,9.06
2023-04-01T09:08:22.387Z,9.30
2023-04-01T09:09:22.418Z,9.25
2023-04-01T09:10:22.371Z,9.24
2023-04-01T09:11:22.452Z,9.32
2023-04-01T09:12:22.352Z,9.18
2023-04-01T09:13:22.398Z,9.27
2023-04-01T09:14:22.363Z,9.40
2023-04-01T09:15:22.305Z,9.49
2023-04-01T09:16:22.414Z,9.64
2023-04-01T09:17:22.300Z,9.66
2023-04-01T09:18:22.281Z,9.64
2023-04-01T09:19:22.263Z,9.68
2023-04-01T09:20:22.277Z,9.58
2023-04-01T09:21:22.261Z,9.81
2023-04-01T09:22:22.251Z,10.06
2023-04-01T09:23:22.249Z,10.12
2023-04-01T09:24:22.229Z,10.15
2023-04-01T09:25:22.231Z,10.34
2023-04-01T09:26:22.242Z,10.37
2023-04-01T09:27:22.227Z,10.33
2023-04-01T09:28:22.177Z,10.47
2023-04-01T09:29:22.291Z,10.56
2023-04-01T09:30:22.162Z,10.32
2023-04-01T09:31:22.211Z,10.10
2023-04-01T09:32:22.171Z,9.96
2023-04-01T09:33:22.133Z,9.88
2023-04-01T09:35:32.771Z,9.82
2023-04-01T09:36:33.433Z,9.79
2023-04-01T09:37:33.410Z,9.58
2023-04-01T09:38:33.379Z,9.28
2023-04-01T09:39:33.402Z,9.38
2023-04-01T09:40:33.382Z,9.32
2023-04-01T09:41:33.378Z,9.34
2023-04-01T09:42:33.349Z,9.35
2023-04-01T09:43:33.344Z,9.31
2023-04-01T09:44:33.320Z,9.40
2023-04-01T09:45:33.735Z,9.31
2023-04-01T09:46:33.360Z,9.30
2023-04-01T09:47:33.343Z,9.40
2023-04-01T09:48:33.287Z,9.40
2023-04-01T09:49:33.296Z,9.35
2023-04-01T09:50:33.300Z,9.25
2023-04-01T09:51:33.273Z,9.18
2023-04-01T09:52:33.244Z,9.20
2023-04-01T09:53:33.325Z,9.02
2023-04-01T09:54:33.230Z,8.97
2023-04-01T09:55:33.368Z,8.97
2023-04-01T09:56:34.269Z,8.99
2023-04-01T09:57:33.348Z,8.97
2023-04-01T09:58:33.188Z,9.12
2023-04-01T09:59:33.210Z,9.18
2023-04-01T10:00:33.173Z,9.24
2023-04-01T10:01:33.214Z,9.21
2023-04-01T10:02:33.202Z,9.24
2023-04-01T10:03:33.201Z,9.15
2023-04-01T10:04:33.120Z,9.12
2023-04-01T10:05:33.371Z,9.09
2023-04-01T10:06:33.125Z,9.16
2023-04-01T10:07:33.101Z,9.24
2023-04-01T10:08:33.146Z,9.16
2023-04-01T10:09:33.109Z,9.20
2023-04-01T10:10:33.039Z,9.30
2023-04-01T10:11:33.096Z,9.28
2023-04-01T10:12:33.067Z,9.32
2023-04-01T10:13:33.043Z,9.42
2023-04-01T10:14:33.019Z,9.42
2023-04-01T10:15:33.328Z,9.43
2023-04-01T10:16:33.033Z,9.48
2023-04-01T10:17:33.030Z,9.39
2023-04-01T10:18:32.973Z,9.45
2023-04-01T10:19:32.995Z,9.46
2023-04-01T10:20:32.948Z,9.50
2023-04-01T10:21:32.978Z,9.56
2023-04-01T10:22:32.948Z,9.57
2023-04-01T10:23:32.934Z,9.45
2023-04-01T10:24:32.912Z,9.35
2023-04-01T10:25:33.172Z,9.52
2023-04-01T10:26:32.971Z,9.66
2023-04-01T10:27:32.891Z,9.91
2023-04-01T10:28:32.895Z,10.01
2023-04-01T10:29:32.865Z,10.12
2023-04-01T10:30:32.964Z,10.17
2023-04-01T10:31:32.853Z,10.25
2023-04-01T10:32:32.848Z,10.24
2023-04-01T10:33:32.829Z,10.15
2023-04-01T10:34:32.823Z,10.15
2023-04-01T10:35:33.084Z,10.09
2023-04-01T10:36:32.848Z,10.33
2023-04-01T10:37:32.808Z,10.43
2023-04-01T10:38:32.766Z,10.59
2023-04-01T10:39:32.752Z,10.70
2023-04-01T10:40:32.737Z,10.71
2023-04-01T10:41:32.827Z,10.83
2023-04-01T10:42:32.741Z,10.89
2023-04-01T10:43:32.738Z,10.91
2023-04-01T10:44:32.698Z,10.92
2023-04-01T10:45:33.155Z,10.98
2023-04-01T10:46:32.866Z,11.17
2023-04-01T10:47:32.725Z,10.68
2023-04-01T10:48:32.672Z,10.63
2023-04-01T10:49:32.648Z,10.77
2023-04-01T10:50:32.659Z,10.92
2023-04-01T10:51:32.656Z,10.84
2023-04-01T10:52:32.628Z,10.77
2023-04-01T10:53:32.619Z,10.78
2023-04-01T10:54:32.626Z,10.84
2023-04-01T10:55:32.938Z,10.94
2023-04-01T10:56:32.601Z,10.92
2023-04-01T10:57:32.648Z,10.95
2023-04-01T10:58:32.576Z,10.80
2023-04-01T10:59:32.578Z,10.71
2023-04-01T11:00:32.576Z,10.62
2023-04-01T11:01:32.578Z,10.58
2023-04-01T11:02:32.753Z,10.59
2023-04-01T11:03:32.660Z,10.63
2023-04-01T11:04:32.498Z,10.73
2023-04-01T11:05:32.828Z,10.65
2023-04-01T11:06:32.499Z,10.65
2023-04-01T11:07:32.534Z,10.62
2023-04-01T11:08:32.525Z,10.55
2023-04-01T11:09:32.462Z,10.51
2023-04-01T11:10:32.434Z,10.37
2023-04-01T11:11:32.459Z,10.28
2023-04-01T11:12:32.407Z,10.40
2023-04-01T11:13:32.410Z,10.51
2023-04-01T11:14:32.411Z,10.33
2023-04-01T11:15:32.868Z,10.44
2023-04-01T11:16:32.435Z,10.47
2023-04-01T11:17:32.402Z,10.53
2023-04-01T11:18:32.484Z,10.34
2023-04-01T11:19:32.346Z,10.15
2023-04-01T11:20:32.367Z,10.22
2023-04-01T11:21:32.331Z,10.21
2023-04-01T11:22:32.313Z,10.21
2023-04-01T11:23:32.301Z,10.24
2023-04-01T11:24:32.311Z,10.30
2023-04-01T11:25:32.462Z,10.17
2023-04-01T11:26:32.301Z,10.30
2023-04-01T11:27:32.292Z,10.34
2023-04-01T11:28:32.254Z,10.43
2023-04-01T11:29:32.317Z,10.52
2023-04-01T11:30:32.267Z,10.63
2023-04-01T11:31:32.362Z,10.43
2023-04-01T11:32:32.330Z,10.24
2023-04-01T11:33:32.280Z,10.30
2023-04-01T11:34:32.204Z,10.44
2023-04-01T11:35:32.481Z,10.40
2023-04-01T11:36:32.214Z,10.37
2023-04-01T11:37:32.186Z,10.47
2023-04-01T11:38:32.159Z,10.52
2023-04-01T11:39:32.246Z,10.26
2023-04-01T11:40:32.150Z,10.25
2023-04-01T11:41:32.311Z,10.34
2023-04-01T11:42:32.114Z,10.30
2023-04-01T11:43:33.728Z,10.39
2023-04-01T11:44:32.175Z,10.47
2023-04-01T11:45:32.312Z,10.58
2023-04-01T11:46:32.241Z,10.59
2023-04-01T11:47:32.082Z,10.59
2023-04-01T11:48:32.068Z,10.40
2023-04-01T11:49:32.060Z,10.34
2023-04-01T11:50:32.056Z,10.30
2023-04-01T11:51:32.083Z,10.39
2023-04-01T11:52:32.007Z,10.44
2023-04-01T11:53:32.009Z,10.55
2023-04-01T11:54:31.997Z,10.63
2023-04-01T11:55:32.204Z,10.58
2023-04-01T11:56:31.978Z,10.40
2023-04-01T11:57:32.051Z,10.46
2023-04-01T11:58:31.940Z,10.47
2023-04-01T11:59:31.930Z,10.46
2023-04-01T12:00:31.998Z,10.53
2023-04-01T12:01:31.920Z,10.39
2023-04-01T12:02:31.965Z,10.34
2023-04-01T12:03:32.084Z,10.53
2023-04-01T12:04:32.006Z,10.70
2023-04-01T12:05:32.200Z,10.71
2023-04-01T12:06:31.904Z,10.77
2023-04-01T12:07:31.858Z,10.76
2023-04-01T12:08:31.864Z,10.78
2023-04-01T12:09:31.870Z,10.80
2023-04-01T12:10:31.824Z,10.62
2023-04-01T12:11:31.843Z,10.58
2023-04-01T12:12:31.816Z,10.55
2023-04-01T12:13:31.980Z,10.78
2023-04-01T12:14:31.798Z,10.91
2023-04-01T12:15:31.972Z,10.89
2023-04-01T12:16:31.915Z,10.81
2023-04-01T12:17:31.839Z,10.88
2023-04-01T12:18:31.744Z,10.81
2023-04-01T12:19:31.734Z,10.89
2023-04-01T12:20:31.724Z,10.71
2023-04-01T12:21:31.792Z,10.55
2023-04-01T12:22:33.784Z,10.65
2023-04-01T12:23:31.763Z,10.76
2023-04-01T12:24:31.929Z,10.83
2023-04-01T12:25:31.969Z,10.86
2023-04-01T12:26:31.747Z,10.86
2023-04-01T12:27:31.660Z,10.89
2023-04-01T12:28:31.663Z,10.77
2023-04-01T12:29:31.638Z,10.74
2023-04-01T12:30:31.666Z,10.70
2023-04-01T12:31:31.662Z,10.47
2023-04-01T12:32:31.653Z,10.39
2023-04-01T12:33:31.600Z,10.42
2023-04-01T12:34:31.574Z,10.53
2023-04-01T12:35:31.801Z,10.39
2023-04-01T12:36:31.596Z,10.26
2023-04-01T12:37:31.546Z,10.28
2023-04-01T12:38:31.544Z,10.36
2023-04-01T12:39:31.599Z,10.30
2023-04-01T12:40:31.752Z,10.40
2023-04-01T12:41:31.714Z,10.62
2023-04-01T12:42:31.522Z,10.71
2023-04-01T12:43:31.586Z,10.68
2023-04-01T12:44:31.515Z,10.77
2023-04-01T12:45:31.738Z,10.89
2023-04-01T12:46:31.525Z,11.07
2023-04-01T12:47:31.459Z,11.25
2023-04-01T12:48:31.431Z,11.36
2023-04-01T12:49:31.428Z,11.59
2023-04-01T12:50:31.407Z,11.78
2023-04-01T12:51:31.449Z,11.72
2023-04-01T12:52:31.384Z,11.78
2023-04-01T12:53:31.380Z,11.74
2023-04-01T12:54:31.363Z,11.38
2023-04-01T12:55:31.505Z,11.28
2023-04-01T12:56:31.375Z,11.07
2023-04-01T12:57:31.424Z,11.01
2023-04-01T12:58:31.390Z,11.03
2023-04-01T12:59:31.323Z,11.19
2023-04-01T13:00:31.316Z,11.31
2023-04-01T13:01:31.347Z,11.34
2023-04-01T13:02:31.346Z,11.21
2023-04-01T13:03:31.291Z,11.25
2023-04-01T13:04:31.316Z,11.20
2023-04-01T13:05:31.531Z,11.21
2023-04-01T13:06:31.265Z,11.31
2023-04-01T13:07:31.239Z,11.47
2023-04-01T13:08:31.233Z,11.62
2023-04-01T13:09:31.210Z,11.67
2023-04-01T13:10:31.467Z,11.64
2023-04-01T13:11:31.212Z,11.62
2023-04-01T13:12:31.211Z,11.56
2023-04-01T13:13:31.162Z,11.46